sensor_id;sensor_type;location;lat;lon;timestamp;P1;durP1;ratioP1;P2;durP2;ratioP2
13244;SDS011;6689;53.400;12.486;2023-05-14T00:00:30;9.15;;;6.05;;
13244;SDS011;6689;53.400;12.486;2023-05-14T00:02:59;7.53;;;6.18;;
13244;SDS011;6689;53.400;12.486;2023-05-14T00:05:26;6.90;;;6.30;;
13244;SDS011;6689;53.400;12.486;2023-05-14T00:07:53;8.57;;;6.18;;
13244;SDS011;6689;53.400;12.486;2023-05-14T00:10:20;8.40;;;6.13;;
13244;SDS011;6689;53.400;12.486;2023-05-14T00:12:49;8.35;;;6.78;;
13244;SDS011;6689;53.400;12.486;2023-05-14T00:15:16;13.00;;;7.28;;
13244;SDS011;6689;53.400;12.486;2023-05-14T00:17:44;10.90;;;7.38;;
13244;SDS011;6689;53.400;12.486;2023-05-14T00:20:13;10.88;;;7.47;;
13244;SDS011;6689;53.400;12.486;2023-05-14T00:22:40;9.38;;;6.75;;
13244;SDS011;6689;53.400;12.486;2023-05-14T00:25:07;7.65;;;6.88;;
13244;SDS011;6689;53.400;12.486;2023-05-14T00:27:35;7.90;;;7.15;;
13244;SDS011;6689;53.400;12.486;2023-05-14T00:30:03;11.40;;;7.85;;
13244;SDS011;6689;53.400;12.486;2023-05-14T00:32:31;7.80;;;6.72;;
13244;SDS011;6689;53.400;12.486;2023-05-14T00:34:58;10.85;;;6.53;;
13244;SDS011;6689;53.400;12.486;2023-05-14T00:37:28;13.32;;;7.22;;
13244;SDS011;6689;53.400;12.486;2023-05-14T00:39:56;7.55;;;6.53;;
13244;SDS011;6689;53.400;12.486;2023-05-14T00:42:23;7.18;;;6.47;;
13244;SDS011;6689;53.400;12.486;2023-05-14T00:44:51;7.63;;;6.55;;
13244;SDS011;6689;53.400;12.486;2023-05-14T00:47:18;10.93;;;6.90;;
13244;SDS011;6689;53.400;12.486;2023-05-14T00:49:46;8.93;;;7.20;;
13244;SDS011;6689;53.400;12.486;2023-05-14T00:52:13;10.38;;;8.02;;
13244;SDS011;6689;53.400;12.486;2023-05-14T00:54:43;9.32;;;7.40;;
13244;SDS011;6689;53.400;12.486;2023-05-14T00:57:11;9.18;;;7.75;;
13244;SDS011;6689;53.400;12.486;2023-05-14T00:59:39;8.60;;;7.80;;
13244;SDS011;6689;53.400;12.486;2023-05-14T01:02:06;8.43;;;7.63;;
13244;SDS011;6689;53.400;12.486;2023-05-14T01:04:34;9.77;;;7.45;;
13244;SDS011;6689;53.400;12.486;2023-05-14T01:07:04;9.32;;;7.40;;
13244;SDS011;6689;53.400;12.486;2023-05-14T01:09:40;10.70;;;7.43;;
13244;SDS011;6689;53.400;12.486;2023-05-14T01:12:19;11.00;;;7.95;;
13244;SDS011;6689;53.400;12.486;2023-05-14T01:14:53;8.48;;;7.55;;
13244;SDS011;6689;53.400;12.486;2023-05-14T01:17:23;8.88;;;7.60;;
13244;SDS011;6689;53.400;12.486;2023-05-14T01:19:54;10.00;;;8.35;;
13244;SDS011;6689;53.400;12.486;2023-05-14T01:22:24;9.23;;;8.38;;
13244;SDS011;6689;53.400;12.486;2023-05-14T01:24:52;9.05;;;8.15;;
13244;SDS011;6689;53.400;12.486;2023-05-14T01:27:22;10.40;;;9.23;;
13244;SDS011;6689;53.400;12.486;2023-05-14T01:29:57;13.43;;;9.02;;
13244;SDS011;6689;53.400;12.486;2023-05-14T01:32:28;10.43;;;9.15;;
13244;SDS011;6689;53.400;12.486;2023-05-14T01:34:57;10.30;;;9.02;;
13244;SDS011;6689;53.400;12.486;2023-05-14T01:37:28;10.40;;;9.40;;
13244;SDS011;6689;53.400;12.486;2023-05-14T01:39:56;10.75;;;9.60;;
13244;SDS011;6689;53.400;12.486;2023-05-14T01:42:24;10.63;;;8.77;;
13244;SDS011;6689;53.400;12.486;2023-05-14T01:44:52;11.27;;;9.00;;
13244;SDS011;6689;53.400;12.486;2023-05-14T01:47:20;11.32;;;9.38;;
13244;SDS011;6689;53.400;12.486;2023-05-14T01:49:47;11.38;;;8.93;;
13244;SDS011;6689;53.400;12.486;2023-05-14T01:52:15;11.45;;;8.65;;
13244;SDS011;6689;53.400;12.486;2023-05-14T01:54:46;10.32;;;9.40;;
13244;SDS011;6689;53.400;12.486;2023-05-14T01:57:15;13.35;;;9.27;;
13244;SDS011;6689;53.400;12.486;2023-05-14T01:59:45;9.38;;;8.48;;
13244;SDS011;6689;53.400;12.486;2023-05-14T02:02:13;10.63;;;8.40;;
13244;SDS011;6689;53.400;12.486;2023-05-14T02:04:40;13.57;;;8.95;;
13244;SDS011;6689;53.400;12.486;2023-05-14T02:07:08;11.82;;;9.88;;
13244;SDS011;6689;53.400;12.486;2023-05-14T02:09:35;16.60;;;9.52;;
13244;SDS011;6689;53.400;12.486;2023-05-14T02:12:04;13.48;;;9.63;;
13244;SDS011;6689;53.400;12.486;2023-05-14T02:14:32;9.75;;;8.52;;
13244;SDS011;6689;53.400;12.486;2023-05-14T02:17:00;11.60;;;9.52;;
13244;SDS011;6689;53.400;12.486;2023-05-14T02:19:27;11.05;;;9.50;;
13244;SDS011;6689;53.400;12.486;2023-05-14T02:21:54;12.05;;;10.15;;
13244;SDS011;6689;53.400;12.486;2023-05-14T02:24:22;10.25;;;9.25;;
13244;SDS011;6689;53.400;12.486;2023-05-14T02:26:50;12.55;;;11.32;;
13244;SDS011;6689;53.400;12.486;2023-05-14T02:29:19;11.90;;;10.63;;
13244;SDS011;6689;53.400;12.486;2023-05-14T02:31:47;11.75;;;10.65;;
13244;SDS011;6689;53.400;12.486;2023-05-14T02:34:14;12.05;;;10.93;;
13244;SDS011;6689;53.400;12.486;2023-05-14T02:36:41;11.68;;;10.45;;
13244;SDS011;6689;53.400;12.486;2023-05-14T02:39:10;13.55;;;11.02;;
13244;SDS011;6689;53.400;12.486;2023-05-14T02:41:37;11.18;;;9.80;;
13244;SDS011;6689;53.400;12.486;2023-05-14T02:44:04;14.60;;;11.13;;
13244;SDS011;6689;53.400;12.486;2023-05-14T02:46:33;12.90;;;10.25;;
13244;SDS011;6689;53.400;12.486;2023-05-14T02:49:01;12.65;;;11.35;;
13244;SDS011;6689;53.400;12.486;2023-05-14T02:51:28;13.18;;;11.50;;
13244;SDS011;6689;53.400;12.486;2023-05-14T02:53:55;12.18;;;10.88;;
13244;SDS011;6689;53.400;12.486;2023-05-14T02:56:23;11.02;;;9.93;;
13244;SDS011;6689;53.400;12.486;2023-05-14T02:58:50;12.25;;;11.05;;
13244;SDS011;6689;53.400;12.486;2023-05-14T03:01:19;12.75;;;10.57;;
13244;SDS011;6689;53.400;12.486;2023-05-14T03:03:47;12.00;;;10.90;;
13244;SDS011;6689;53.400;12.486;2023-05-14T03:06:15;12.98;;;11.05;;
13244;SDS011;6689;53.400;12.486;2023-05-14T03:08:42;15.48;;;11.25;;
13244;SDS011;6689;53.400;12.486;2023-05-14T03:11:09;11.93;;;9.77;;
13244;SDS011;6689;53.400;12.486;2023-05-14T03:13:37;11.23;;;10.23;;
13244;SDS011;6689;53.400;12.486;2023-05-14T03:16:05;13.68;;;12.32;;
13244;SDS011;6689;53.400;12.486;2023-05-14T03:18:32;15.30;;;12.20;;
13244;SDS011;6689;53.400;12.486;2023-05-14T03:21:02;12.43;;;11.18;;
13244;SDS011;6689;53.400;12.486;2023-05-14T03:23:30;13.85;;;12.40;;
13244;SDS011;6689;53.400;12.486;2023-05-14T03:25:59;14.27;;;12.85;;
13244;SDS011;6689;53.400;12.486;2023-05-14T03:28:26;15.40;;;12.95;;
13244;SDS011;6689;53.400;12.486;2023-05-14T03:30:54;14.68;;;12.82;;
13244;SDS011;6689;53.400;12.486;2023-05-14T03:33:21;15.27;;;11.95;;
13244;SDS011;6689;53.400;12.486;2023-05-14T03:35:48;15.82;;;12.65;;
13244;SDS011;6689;53.400;12.486;2023-05-14T03:38:17;16.85;;;10.63;;
13244;SDS011;6689;53.400;12.486;2023-05-14T03:40:44;13.00;;;11.80;;
13244;SDS011;6689;53.400;12.486;2023-05-14T03:43:12;12.80;;;11.50;;
13244;SDS011;6689;53.400;12.486;2023-05-14T03:45:40;14.27;;;12.85;;
13244;SDS011;6689;53.400;12.486;2023-05-14T03:48:07;12.98;;;11.82;;
13244;SDS011;6689;53.400;12.486;2023-05-14T03:50:35;14.00;;;12.18;;
13244;SDS011;6689;53.400;12.486;2023-05-14T03:53:02;14.93;;;12.90;;
13244;SDS011;6689;53.400;12.486;2023-05-14T03:55:31;12.52;;;11.07;;
13244;SDS011;6689;53.400;12.486;2023-05-14T03:57:58;15.10;;;11.88;;
13244;SDS011;6689;53.400;12.486;2023-05-14T04:00:26;17.88;;;12.63;;
13244;SDS011;6689;53.400;12.486;2023-05-14T04:02:53;16.17;;;13.45;;
13244;SDS011;6689;53.400;12.486;2023-05-14T04:05:20;16.25;;;11.65;;
13244;SDS011;6689;53.400;12.486;2023-05-14T04:07:47;13.27;;;11.52;;
13244;SDS011;6689;53.400;12.486;2023-05-14T04:10:16;11.55;;;10.55;;
13244;SDS011;6689;53.400;12.486;2023-05-14T04:12:45;14.63;;;10.80;;
13244;SDS011;6689;53.400;12.486;2023-05-14T04:15:12;10.88;;;9.93;;
13244;SDS011;6689;53.400;12.486;2023-05-14T04:17:40;11.50;;;10.38;;
13244;SDS011;6689;53.400;12.486;2023-05-14T04:20:07;15.48;;;10.43;;
13244;SDS011;6689;53.400;12.486;2023-05-14T04:22:35;10.43;;;9.50;;
13244;SDS011;6689;53.400;12.486;2023-05-14T04:25:02;10.90;;;9.90;;
13244;SDS011;6689;53.400;12.486;2023-05-14T04:27:31;11.68;;;10.10;;
13244;SDS011;6689;53.400;12.486;2023-05-14T04:30:00;12.88;;;9.55;;
13244;SDS011;6689;53.400;12.486;2023-05-14T04:32:28;11.57;;;10.38;;
13244;SDS011;6689;53.400;12.486;2023-05-14T04:34:55;12.93;;;9.90;;
13244;SDS011;6689;53.400;12.486;2023-05-14T04:37:22;13.50;;;11.27;;
13244;SDS011;6689;53.400;12.486;2023-05-14T04:39:50;11.93;;;10.40;;
13244;SDS011;6689;53.400;12.486;2023-05-14T04:42:17;10.38;;;9.38;;
13244;SDS011;6689;53.400;12.486;2023-05-14T04:44:45;11.63;;;10.32;;
13244;SDS011;6689;53.400;12.486;2023-05-14T04:47:14;11.43;;;10.30;;
13244;SDS011;6689;53.400;12.486;2023-05-14T04:49:41;9.52;;;8.65;;
13244;SDS011;6689;53.400;12.486;2023-05-14T04:52:09;11.85;;;10.07;;
13244;SDS011;6689;53.400;12.486;2023-05-14T04:54:36;10.93;;;9.93;;
13244;SDS011;6689;53.400;12.486;2023-05-14T04:57:04;15.00;;;9.60;;
13244;SDS011;6689;53.400;12.486;2023-05-14T04:59:31;10.73;;;9.73;;
13244;SDS011;6689;53.400;12.486;2023-05-14T05:01:58;10.77;;;8.98;;
13244;SDS011;6689;53.400;12.486;2023-05-14T05:04:27;12.27;;;11.13;;
13244;SDS011;6689;53.400;12.486;2023-05-14T05:06:54;11.20;;;10.18;;
13244;SDS011;6689;53.400;12.486;2023-05-14T05:09:22;10.48;;;9.48;;
13244;SDS011;6689;53.400;12.486;2023-05-14T05:11:49;11.65;;;9.43;;
13244;SDS011;6689;53.400;12.486;2023-05-14T05:14:16;10.32;;;8.07;;
13244;SDS011;6689;53.400;12.486;2023-05-14T05:16:44;12.70;;;8.70;;
13244;SDS011;6689;53.400;12.486;2023-05-14T05:19:11;9.85;;;7.10;;
13244;SDS011;6689;53.400;12.486;2023-05-14T05:21:40;13.32;;;8.65;;
13244;SDS011;6689;53.400;12.486;2023-05-14T05:24:08;9.63;;;8.02;;
13244;SDS011;6689;53.400;12.486;2023-05-14T05:26:35;8.20;;;7.22;;
13244;SDS011;6689;53.400;12.486;2023-05-14T05:29:05;9.13;;;6.65;;
13244;SDS011;6689;53.400;12.486;2023-05-14T05:31:32;7.85;;;6.70;;
13244;SDS011;6689;53.400;12.486;2023-05-14T05:34:01;6.72;;;6.13;;
13244;SDS011;6689;53.400;12.486;2023-05-14T05:36:29;9.20;;;6.20;;
13244;SDS011;6689;53.400;12.486;2023-05-14T05:38:59;8.13;;;6.28;;
13244;SDS011;6689;53.400;12.486;2023-05-14T05:41:26;9.25;;;6.28;;
13244;SDS011;6689;53.400;12.486;2023-05-14T05:43:54;8.80;;;6.35;;
13244;SDS011;6689;53.400;12.486;2023-05-14T05:46:24;7.85;;;6.30;;
13244;SDS011;6689;53.400;12.486;2023-05-14T05:48:52;9.27;;;6.13;;
13244;SDS011;6689;53.400;12.486;2023-05-14T05:51:19;6.45;;;5.88;;
13244;SDS011;6689;53.400;12.486;2023-05-14T05:53:46;8.25;;;6.40;;
13244;SDS011;6689;53.400;12.486;2023-05-14T05:56:15;10.93;;;6.95;;
13244;SDS011;6689;53.400;12.486;2023-05-14T05:58:42;8.50;;;6.05;;
13244;SDS011;6689;53.400;12.486;2023-05-14T06:01:09;7.38;;;6.05;;
13244;SDS011;6689;53.400;12.486;2023-05-14T06:03:37;9.15;;;6.10;;
13244;SDS011;6689;53.400;12.486;2023-05-14T06:06:04;9.43;;;6.40;;
13244;SDS011;6689;53.400;12.486;2023-05-14T06:08:32;9.23;;;5.80;;
13244;SDS011;6689;53.400;12.486;2023-05-14T06:10:59;7.45;;;6.45;;
13244;SDS011;6689;53.400;12.486;2023-05-14T06:13:28;13.45;;;6.68;;
13244;SDS011;6689;53.400;12.486;2023-05-14T06:15:58;8.52;;;6.60;;
13244;SDS011;6689;53.400;12.486;2023-05-14T06:18:25;8.93;;;6.57;;
13244;SDS011;6689;53.400;12.486;2023-05-14T06:20:52;8.90;;;6.82;;
13244;SDS011;6689;53.400;12.486;2023-05-14T06:23:20;10.93;;;7.75;;
13244;SDS011;6689;53.400;12.486;2023-05-14T06:25:48;8.70;;;4.72;;
13244;SDS011;6689;53.400;12.486;2023-05-14T06:28:15;7.93;;;5.22;;
13244;SDS011;6689;53.400;12.486;2023-05-14T06:30:44;6.28;;;4.85;;
13244;SDS011;6689;53.400;12.486;2023-05-14T06:33:13;9.50;;;4.63;;
13244;SDS011;6689;53.400;12.486;2023-05-14T06:35:40;7.13;;;4.07;;
13244;SDS011;6689;53.400;12.486;2023-05-14T06:38:07;8.35;;;4.90;;
13244;SDS011;6689;53.400;12.486;2023-05-14T06:40:34;6.95;;;4.03;;
13244;SDS011;6689;53.400;12.486;2023-05-14T06:43:02;6.25;;;4.03;;
13244;SDS011;6689;53.400;12.486;2023-05-14T06:45:30;8.57;;;4.70;;
13244;SDS011;6689;53.400;12.486;2023-05-14T06:47:59;7.53;;;4.53;;
13244;SDS011;6689;53.400;12.486;2023-05-14T06:50:26;4.82;;;4.18;;
13244;SDS011;6689;53.400;12.486;2023-05-14T06:52:53;6.30;;;3.92;;
13244;SDS011;6689;53.400;12.486;2023-05-14T06:55:21;8.05;;;4.40;;
13244;SDS011;6689;53.400;12.486;2023-05-14T06:57:48;8.35;;;3.92;;
13244;SDS011;6689;53.400;12.486;2023-05-14T07:00:16;9.75;;;4.15;;
13244;SDS011;6689;53.400;12.486;2023-05-14T07:02:44;4.28;;;3.78;;
13244;SDS011;6689;53.400;12.486;2023-05-14T07:05:12;16.27;;;4.38;;
13244;SDS011;6689;53.400;12.486;2023-05-14T07:07:40;9.35;;;3.67;;
13244;SDS011;6689;53.400;12.486;2023-05-14T07:10:07;7.63;;;3.45;;
13244;SDS011;6689;53.400;12.486;2023-05-14T07:12:34;10.38;;;3.83;;
13244;SDS011;6689;53.400;12.486;2023-05-14T07:15:02;3.92;;;3.40;;
13244;SDS011;6689;53.400;12.486;2023-05-14T07:17:30;7.57;;;3.83;;
13244;SDS011;6689;53.400;12.486;2023-05-14T07:19:57;5.88;;;3.20;;
13244;SDS011;6689;53.400;12.486;2023-05-14T07:22:26;11.30;;;4.45;;
13244;SDS011;6689;53.400;12.486;2023-05-14T07:24:53;7.05;;;3.55;;
13244;SDS011;6689;53.400;12.486;2023-05-14T07:27:20;7.25;;;3.60;;
13244;SDS011;6689;53.400;12.486;2023-05-14T07:29:48;9.05;;;3.35;;
13244;SDS011;6689;53.400;12.486;2023-05-14T07:32:15;8.55;;;3.75;;
13244;SDS011;6689;53.400;12.486;2023-05-14T07:34:43;5.18;;;3.40;;
13244;SDS011;6689;53.400;12.486;2023-05-14T07:37:10;6.88;;;3.53;;
13244;SDS011;6689;53.400;12.486;2023-05-14T07:39:39;6.90;;;3.80;;
13244;SDS011;6689;53.400;12.486;2023-05-14T07:42:06;6.32;;;3.40;;
13244;SDS011;6689;53.400;12.486;2023-05-14T07:44:33;6.60;;;3.25;;
13244;SDS011;6689;53.400;12.486;2023-05-14T07:47:01;10.50;;;4.20;;
13244;SDS011;6689;53.400;12.486;2023-05-14T07:49:28;5.55;;;3.47;;
13244;SDS011;6689;53.400;12.486;2023-05-14T07:51:55;7.13;;;3.58;;
13244;SDS011;6689;53.400;12.486;2023-05-14T07:54:22;7.03;;;4.13;;
13244;SDS011;6689;53.400;12.486;2023-05-14T07:56:51;6.90;;;3.97;;
13244;SDS011;6689;53.400;12.486;2023-05-14T07:59:18;5.63;;;3.20;;
13244;SDS011;6689;53.400;12.486;2023-05-14T08:01:46;8.05;;;4.20;;
13244;SDS011;6689;53.400;12.486;2023-05-14T08:04:13;9.10;;;3.92;;
13244;SDS011;6689;53.400;12.486;2023-05-14T08:06:44;7.43;;;3.53;;
13244;SDS011;6689;53.400;12.486;2023-05-14T08:09:11;4.78;;;3.67;;
13244;SDS011;6689;53.400;12.486;2023-05-14T08:11:39;5.28;;;3.60;;
13244;SDS011;6689;53.400;12.486;2023-05-14T08:14:08;8.25;;;3.60;;
13244;SDS011;6689;53.400;12.486;2023-05-14T08:16:35;9.88;;;4.45;;
13244;SDS011;6689;53.400;12.486;2023-05-14T08:19:02;6.03;;;3.70;;
13244;SDS011;6689;53.400;12.486;2023-05-14T08:21:30;8.60;;;3.55;;
13244;SDS011;6689;53.400;12.486;2023-05-14T08:23:58;5.93;;;3.67;;
13244;SDS011;6689;53.400;12.486;2023-05-14T08:26:25;6.78;;;3.10;;
13244;SDS011;6689;53.400;12.486;2023-05-14T08:28:52;5.97;;;3.58;;
13244;SDS011;6689;53.400;12.486;2023-05-14T08:31:21;7.80;;;3.50;;
13244;SDS011;6689;53.400;12.486;2023-05-14T08:33:48;7.00;;;3.67;;
13244;SDS011;6689;53.400;12.486;2023-05-14T08:36:15;5.28;;;3.28;;
13244;SDS011;6689;53.400;12.486;2023-05-14T08:38:43;6.25;;;3.40;;
13244;SDS011;6689;53.400;12.486;2023-05-14T08:41:10;5.82;;;3.60;;
13244;SDS011;6689;53.400;12.486;2023-05-14T08:43:42;6.50;;;3.65;;
13244;SDS011;6689;53.400;12.486;2023-05-14T08:48:45;5.30;;;3.55;;
13244;SDS011;6689;53.400;12.486;2023-05-14T08:51:15;9.07;;;3.30;;
13244;SDS011;6689;53.400;12.486;2023-05-14T08:53:43;16.73;;;3.88;;
13244;SDS011;6689;53.400;12.486;2023-05-14T08:56:10;5.97;;;3.38;;
13244;SDS011;6689;53.400;12.486;2023-05-14T08:58:38;7.68;;;3.67;;
13244;SDS011;6689;53.400;12.486;2023-05-14T09:01:05;4.55;;;3.30;;
13244;SDS011;6689;53.400;12.486;2023-05-14T09:03:33;5.32;;;3.10;;
13244;SDS011;6689;53.400;12.486;2023-05-14T09:06:03;7.53;;;3.28;;
13244;SDS011;6689;53.400;12.486;2023-05-14T09:08:31;7.93;;;2.97;;
13244;SDS011;6689;53.400;12.486;2023-05-14T09:11:00;8.55;;;3.60;;
13244;SDS011;6689;53.400;12.486;2023-05-14T09:13:27;8.00;;;4.53;;
13244;SDS011;6689;53.400;12.486;2023-05-14T09:15:55;4.75;;;3.65;;
13244;SDS011;6689;53.400;12.486;2023-05-14T09:18:23;7.40;;;3.30;;
13244;SDS011;6689;53.400;12.486;2023-05-14T09:20:51;8.15;;;3.15;;
13244;SDS011;6689;53.400;12.486;2023-05-14T09:23:20;3.85;;;3.30;;
13244;SDS011;6689;53.400;12.486;2023-05-14T09:25:47;6.75;;;3.20;;
13244;SDS011;6689;53.400;12.486;2023-05-14T09:28:16;6.50;;;3.15;;
13244;SDS011;6689;53.400;12.486;2023-05-14T09:30:46;4.43;;;3.47;;
13244;SDS011;6689;53.400;12.486;2023-05-14T09:33:24;9.32;;;3.10;;
13244;SDS011;6689;53.400;12.486;2023-05-14T09:35:54;7.13;;;3.40;;
13244;SDS011;6689;53.400;12.486;2023-05-14T09:38:28;5.20;;;3.03;;
13244;SDS011;6689;53.400;12.486;2023-05-14T09:40:56;9.45;;;2.90;;
13244;SDS011;6689;53.400;12.486;2023-05-14T09:43:23;4.32;;;3.33;;
13244;SDS011;6689;53.400;12.486;2023-05-14T09:45:51;4.68;;;2.95;;
13244;SDS011;6689;53.400;12.486;2023-05-14T09:48:18;6.25;;;3.00;;
13244;SDS011;6689;53.400;12.486;2023-05-14T09:50:47;4.95;;;3.15;;
13244;SDS011;6689;53.400;12.486;2023-05-14T09:53:14;9.40;;;3.90;;
13244;SDS011;6689;53.400;12.486;2023-05-14T09:55:43;4.90;;;3.45;;
13244;SDS011;6689;53.400;12.486;2023-05-14T09:58:10;4.85;;;2.70;;
13244;SDS011;6689;53.400;12.486;2023-05-14T10:00:40;5.38;;;3.08;;
13244;SDS011;6689;53.400;12.486;2023-05-14T10:03:12;5.38;;;2.90;;
13244;SDS011;6689;53.400;12.486;2023-05-14T10:05:40;4.95;;;3.00;;
13244;SDS011;6689;53.400;12.486;2023-05-14T10:08:11;6.60;;;2.75;;
13244;SDS011;6689;53.400;12.486;2023-05-14T10:10:40;6.13;;;3.28;;
13244;SDS011;6689;53.400;12.486;2023-05-14T10:13:10;4.65;;;3.40;;
13244;SDS011;6689;53.400;12.486;2023-05-14T10:15:41;5.30;;;3.15;;
13244;SDS011;6689;53.400;12.486;2023-05-14T10:18:14;7.55;;;3.78;;
13244;SDS011;6689;53.400;12.486;2023-05-14T10:20:44;6.60;;;3.42;;
13244;SDS011;6689;53.400;12.486;2023-05-14T10:23:18;4.95;;;2.97;;
13244;SDS011;6689;53.400;12.486;2023-05-14T10:25:45;4.80;;;3.28;;
13244;SDS011;6689;53.400;12.486;2023-05-14T10:28:14;6.10;;;2.95;;
13244;SDS011;6689;53.400;12.486;2023-05-14T10:30:43;5.85;;;3.60;;
13244;SDS011;6689;53.400;12.486;2023-05-14T10:33:11;6.50;;;3.65;;
13244;SDS011;6689;53.400;12.486;2023-05-14T10:35:51;4.82;;;3.08;;
13244;SDS011;6689;53.400;12.486;2023-05-14T10:38:26;8.07;;;4.25;;
13244;SDS011;6689;53.400;12.486;2023-05-14T10:40:55;4.40;;;3.40;;
13244;SDS011;6689;53.400;12.486;2023-05-14T10:43:28;5.80;;;3.20;;
13244;SDS011;6689;53.400;12.486;2023-05-14T10:45:56;6.57;;;3.47;;
13244;SDS011;6689;53.400;12.486;2023-05-14T10:48:25;6.63;;;3.65;;
13244;SDS011;6689;53.400;12.486;2023-05-14T10:50:52;5.25;;;3.30;;
13244;SDS011;6689;53.400;12.486;2023-05-14T10:53:28;7.03;;;3.40;;
13244;SDS011;6689;53.400;12.486;2023-05-14T10:56:04;7.97;;;3.90;;
13244;SDS011;6689;53.400;12.486;2023-05-14T10:58:36;6.93;;;3.38;;
13244;SDS011;6689;53.400;12.486;2023-05-14T11:01:05;6.13;;;3.80;;
13244;SDS011;6689;53.400;12.486;2023-05-14T11:03:37;11.55;;;3.80;;
13244;SDS011;6689;53.400;12.486;2023-05-14T11:06:06;10.10;;;3.70;;
13244;SDS011;6689;53.400;12.486;2023-05-14T11:08:34;7.38;;;3.20;;
13244;SDS011;6689;53.400;12.486;2023-05-14T11:11:02;7.55;;;3.78;;
13244;SDS011;6689;53.400;12.486;2023-05-14T11:13:29;7.65;;;3.42;;
13244;SDS011;6689;53.400;12.486;2023-05-14T11:16:00;6.85;;;3.17;;
13244;SDS011;6689;53.400;12.486;2023-05-14T11:18:28;7.88;;;3.88;;
13244;SDS011;6689;53.400;12.486;2023-05-14T11:20:57;4.80;;;3.40;;
13244;SDS011;6689;53.400;12.486;2023-05-14T11:23:26;4.75;;;3.28;;
13244;SDS011;6689;53.400;12.486;2023-05-14T11:25:54;4.57;;;3.67;;
13244;SDS011;6689;53.400;12.486;2023-05-14T11:28:22;6.70;;;3.30;;
13244;SDS011;6689;53.400;12.486;2023-05-14T11:30:50;5.45;;;3.38;;
13244;SDS011;6689;53.400;12.486;2023-05-14T11:33:20;5.57;;;3.42;;
13244;SDS011;6689;53.400;12.486;2023-05-14T11:35:47;4.07;;;3.55;;
13244;SDS011;6689;53.400;12.486;2023-05-14T11:38:15;4.20;;;3.65;;
13244;SDS011;6689;53.400;12.486;2023-05-14T11:40:49;4.93;;;3.08;;
13244;SDS011;6689;53.400;12.486;2023-05-14T11:43:18;4.38;;;3.90;;
13244;SDS011;6689;53.400;12.486;2023-05-14T11:45:48;7.07;;;3.92;;
13244;SDS011;6689;53.400;12.486;2023-05-14T11:48:16;5.60;;;3.83;;
13244;SDS011;6689;53.400;12.486;2023-05-14T11:50:45;4.60;;;3.60;;
13244;SDS011;6689;53.400;12.486;2023-05-14T11:53:17;6.75;;;3.80;;
13244;SDS011;6689;53.400;12.486;2023-05-14T11:55:45;11.00;;;4.25;;
13244;SDS011;6689;53.400;12.486;2023-05-14T11:58:12;5.20;;;3.92;;
13244;SDS011;6689;53.400;12.486;2023-05-14T12:00:43;7.32;;;3.58;;
13244;SDS011;6689;53.400;12.486;2023-05-14T12:03:19;4.93;;;3.33;;
13244;SDS011;6689;53.400;12.486;2023-05-14T12:05:56;3.67;;;3.03;;
13244;SDS011;6689;53.400;12.486;2023-05-14T12:08:25;9.52;;;3.67;;
13244;SDS011;6689;53.400;12.486;2023-05-14T12:10:53;8.82;;;4.55;;
13244;SDS011;6689;53.400;12.486;2023-05-14T12:13:20;4.55;;;4.00;;
13244;SDS011;6689;53.400;12.486;2023-05-14T12:15:53;9.82;;;3.67;;
13244;SDS011;6689;53.400;12.486;2023-05-14T12:18:23;10.05;;;4.32;;
13244;SDS011;6689;53.400;12.486;2023-05-14T12:20:50;9.15;;;3.70;;
13244;SDS011;6689;53.400;12.486;2023-05-14T12:23:23;7.75;;;3.80;;
13244;SDS011;6689;53.400;12.486;2023-05-14T12:25:51;7.88;;;3.88;;
13244;SDS011;6689;53.400;12.486;2023-05-14T12:28:18;5.43;;;3.60;;
13244;SDS011;6689;53.400;12.486;2023-05-14T12:30:46;6.50;;;4.05;;
13244;SDS011;6689;53.400;12.486;2023-05-14T12:33:13;8.82;;;3.60;;
13244;SDS011;6689;53.400;12.486;2023-05-14T12:35:44;9.10;;;4.40;;
13244;SDS011;6689;53.400;12.486;2023-05-14T12:38:11;7.85;;;4.20;;
13244;SDS011;6689;53.400;12.486;2023-05-14T12:40:39;6.60;;;4.13;;
13244;SDS011;6689;53.400;12.486;2023-05-14T12:43:06;9.55;;;4.90;;
13244;SDS011;6689;53.400;12.486;2023-05-14T12:45:33;9.23;;;4.07;;
13244;SDS011;6689;53.400;12.486;2023-05-14T12:48:00;6.88;;;4.40;;
13244;SDS011;6689;53.400;12.486;2023-05-14T12:50:28;7.97;;;4.45;;
13244;SDS011;6689;53.400;12.486;2023-05-14T12:52:57;10.65;;;5.18;;
13244;SDS011;6689;53.400;12.486;2023-05-14T12:55:24;8.80;;;4.60;;
13244;SDS011;6689;53.400;12.486;2023-05-14T12:57:51;5.57;;;3.88;;
13244;SDS011;6689;53.400;12.486;2023-05-14T13:00:19;10.35;;;4.80;;
13244;SDS011;6689;53.400;12.486;2023-05-14T13:02:46;8.35;;;4.60;;
13244;SDS011;6689;53.400;12.486;2023-05-14T13:05:14;7.55;;;4.55;;
13244;SDS011;6689;53.400;12.486;2023-05-14T13:07:41;8.63;;;4.47;;
13244;SDS011;6689;53.400;12.486;2023-05-14T13:10:10;7.00;;;4.53;;
13244;SDS011;6689;53.400;12.486;2023-05-14T13:12:37;7.65;;;4.45;;
13244;SDS011;6689;53.400;12.486;2023-05-14T13:15:05;5.55;;;4.05;;
13244;SDS011;6689;53.400;12.486;2023-05-14T13:17:35;13.52;;;4.78;;
13244;SDS011;6689;53.400;12.486;2023-05-14T13:20:03;7.45;;;4.72;;
13244;SDS011;6689;53.400;12.486;2023-05-14T13:22:31;9.40;;;4.75;;
13244;SDS011;6689;53.400;12.486;2023-05-14T13:24:58;6.80;;;4.13;;
13244;SDS011;6689;53.400;12.486;2023-05-14T13:27:27;8.10;;;4.38;;
13244;SDS011;6689;53.400;12.486;2023-05-14T13:29:54;9.20;;;4.70;;
13244;SDS011;6689;53.400;12.486;2023-05-14T13:32:22;9.45;;;4.35;;
13244;SDS011;6689;53.400;12.486;2023-05-14T13:34:49;9.95;;;5.38;;
13244;SDS011;6689;53.400;12.486;2023-05-14T13:37:17;7.53;;;4.20;;
13244;SDS011;6689;53.400;12.486;2023-05-14T13:39:44;8.32;;;4.95;;
13244;SDS011;6689;53.400;12.486;2023-05-14T13:42:11;7.45;;;4.80;;
13244;SDS011;6689;53.400;12.486;2023-05-14T13:44:40;10.75;;;4.57;;
13244;SDS011;6689;53.400;12.486;2023-05-14T13:47:10;7.80;;;4.20;;
13244;SDS011;6689;53.400;12.486;2023-05-14T13:49:38;7.55;;;4.45;;
13244;SDS011;6689;53.400;12.486;2023-05-14T13:52:05;7.80;;;4.25;;
13244;SDS011;6689;53.400;12.486;2023-05-14T13:54:33;9.32;;;4.00;;
13244;SDS011;6689;53.400;12.486;2023-05-14T13:57:00;5.05;;;3.92;;
13244;SDS011;6689;53.400;12.486;2023-05-14T13:59:27;10.30;;;4.80;;
13244;SDS011;6689;53.400;12.486;2023-05-14T14:01:56;6.80;;;4.25;;
13244;SDS011;6689;53.400;12.486;2023-05-14T14:04:23;7.07;;;4.82;;
13244;SDS011;6689;53.400;12.486;2023-05-14T14:06:53;12.40;;;4.60;;
13244;SDS011;6689;53.400;12.486;2023-05-14T14:09:20;12.73;;;4.72;;
13244;SDS011;6689;53.400;12.486;2023-05-14T14:11:47;6.43;;;3.97;;
13244;SDS011;6689;53.400;12.486;2023-05-14T14:14:15;7.90;;;4.60;;
13244;SDS011;6689;53.400;12.486;2023-05-14T14:16:42;7.75;;;4.60;;
13244;SDS011;6689;53.400;12.486;2023-05-14T14:19:11;13.02;;;4.80;;
13244;SDS011;6689;53.400;12.486;2023-05-14T14:21:38;7.60;;;4.10;;
13244;SDS011;6689;53.400;12.486;2023-05-14T14:24:06;5.85;;;4.45;;
13244;SDS011;6689;53.400;12.486;2023-05-14T14:26:34;7.60;;;4.13;;
13244;SDS011;6689;53.400;12.486;2023-05-14T14:29:01;9.50;;;4.20;;
13244;SDS011;6689;53.400;12.486;2023-05-14T14:31:28;7.53;;;4.63;;
13244;SDS011;6689;53.400;12.486;2023-05-14T14:33:55;8.00;;;4.22;;
13244;SDS011;6689;53.400;12.486;2023-05-14T14:36:24;6.30;;;4.32;;
13244;SDS011;6689;53.400;12.486;2023-05-14T14:38:53;6.72;;;4.82;;
13244;SDS011;6689;53.400;12.486;2023-05-14T14:41:20;7.72;;;3.55;;
13244;SDS011;6689;53.400;12.486;2023-05-14T14:43:47;6.55;;;3.47;;
13244;SDS011;6689;53.400;12.486;2023-05-14T14:46:15;7.25;;;3.53;;
13244;SDS011;6689;53.400;12.486;2023-05-14T14:48:42;9.45;;;3.97;;